sensor_id;sensor_type;location;lat;lon;timestamp;temperature;humidity
16032;DHT22;8120;48.308;8.914;2023-04-06T00:01:48;-2.10;73.60
16032;DHT22;8120;48.308;8.914;2023-04-06T00:04:16;-2.10;74.50
16032;DHT22;8120;48.308;8.914;2023-04-06T00:06:44;-2.10;75.10
16032;DHT22;8120;48.308;8.914;2023-04-06T00:09:13;-2.10;74.80
16032;DHT22;8120;48.308;8.914;2023-04-06T00:11:41;-2.10;74.00
16032;DHT22;8120;48.308;8.914;2023-04-06T00:14:09;-2.10;74.30
16032;DHT22;8120;48.308;8.914;2023-04-06T00:16:37;-2.20;74.80
16032;DHT22;8120;48.308;8.914;2023-04-06T00:19:04;-2.20;75.10
16032;DHT22;8120;48.308;8.914;2023-04-06T00:21:33;-2.30;75.20
16032;DHT22;8120;48.308;8.914;2023-04-06T00:24:01;-2.30;75.20
16032;DHT22;8120;48.308;8.914;2023-04-06T00:26:31;-2.40;75.50
16032;DHT22;8120;48.308;8.914;2023-04-06T00:28:59;-2.50;75.30
16032;DHT22;8120;48.308;8.914;2023-04-06T00:31:27;-2.50;76.00
16032;DHT22;8120;48.308;8.914;2023-04-06T00:33:55;-2.50;75.80
16032;DHT22;8120;48.308;8.914;2023-04-06T00:36:23;-2.60;75.70
16032;DHT22;8120;48.308;8.914;2023-04-06T00:38:51;-2.60;75.90
16032;DHT22;8120;48.308;8.914;2023-04-06T00:41:19;-2.60;75.70
16032;DHT22;8120;48.308;8.914;2023-04-06T00:43:49;-2.70;76.30
16032;DHT22;8120;48.308;8.914;2023-04-06T00:46:17;-2.80;75.90
16032;DHT22;8120;48.308;8.914;2023-04-06T00:48:45;-2.80;77.00
16032;DHT22;8120;48.308;8.914;2023-04-06T00:51:12;-2.60;75.60
16032;DHT22;8120;48.308;8.914;2023-04-06T00:53:40;-2.60;75.30
16032;DHT22;8120;48.308;8.914;2023-04-06T00:56:08;-2.70;75.40
16032;DHT22;8120;48.308;8.914;2023-04-06T00:58:37;-2.70;75.80
16032;DHT22;8120;48.308;8.914;2023-04-06T01:01:06;-2.80;75.70
16032;DHT22;8120;48.308;8.914;2023-04-06T01:03:34;-2.90;76.20
16032;DHT22;8120;48.308;8.914;2023-04-06T01:06:02;-2.90;76.40
16032;DHT22;8120;48.308;8.914;2023-04-06T01:08:30;-2.90;76.80
16032;DHT22;8120;48.308;8.914;2023-04-06T01:10:59;-2.90;76.20
16032;DHT22;8120;48.308;8.914;2023-04-06T01:13:28;-2.80;76.20
16032;DHT22;8120;48.308;8.914;2023-04-06T01:15:56;-2.80;75.90
16032;DHT22;8120;48.308;8.914;2023-04-06T01:18:27;-2.90;75.70
16032;DHT22;8120;48.308;8.914;2023-04-06T01:20:55;-2.90;75.70
16032;DHT22;8120;48.308;8.914;2023-04-06T01:23:24;-3.00;76.50
16032;DHT22;8120;48.308;8.914;2023-04-06T01:25:52;-3.00;76.00
16032;DHT22;8120;48.308;8.914;2023-04-06T01:28:20;-3.10;77.30
16032;DHT22;8120;48.308;8.914;2023-04-06T01:30:48;-3.10;76.40
16032;DHT22;8120;48.308;8.914;2023-04-06T01:33:16;-3.20;77.20
16032;DHT22;8120;48.308;8.914;2023-04-06T01:35:44;-3.20;77.10
16032;DHT22;8120;48.308;8.914;2023-04-06T01:38:12;-3.20;77.00
16032;DHT22;8120;48.308;8.914;2023-04-06T01:40:41;-3.30;77.60
16032;DHT22;8120;48.308;8.914;2023-04-06T01:43:09;-3.20;77.40
16032;DHT22;8120;48.308;8.914;2023-04-06T01:45:36;-3.20;77.20
16032;DHT22;8120;48.308;8.914;2023-04-06T01:48:05;-3.20;77.50
16032;DHT22;8120;48.308;8.914;2023-04-06T01:50:33;-3.20;77.40
16032;DHT22;8120;48.308;8.914;2023-04-06T01:53:01;-3.20;77.20
16032;DHT22;8120;48.308;8.914;2023-04-06T01:55:28;-3.20;76.90
16032;DHT22;8120;48.308;8.914;2023-04-06T01:57:58;-3.10;76.60
16032;DHT22;8120;48.308;8.914;2023-04-06T02:00:26;-3.10;77.10
16032;DHT22;8120;48.308;8.914;2023-04-06T02:02:53;-3.00;76.60
16032;DHT22;8120;48.308;8.914;2023-04-06T02:05:21;-3.00;75.50
16032;DHT22;8120;48.308;8.914;2023-04-06T02:07:49;-3.10;76.20
16032;DHT22;8120;48.308;8.914;2023-04-06T02:10:18;-3.10;76.30
16032;DHT22;8120;48.308;8.914;2023-04-06T02:12:46;-3.20;75.50
16032;DHT22;8120;48.308;8.914;2023-04-06T02:15:15;-3.30;76.70
16032;DHT22;8120;48.308;8.914;2023-04-06T02:17:43;-3.40;77.00
16032;DHT22;8120;48.308;8.914;2023-04-06T02:20:11;-3.50;77.80
16032;DHT22;8120;48.308;8.914;2023-04-06T02:22:39;-3.60;77.40
16032;DHT22;8120;48.308;8.914;2023-04-06T02:25:07;-3.70;78.50
16032;DHT22;8120;48.308;8.914;2023-04-06T02:27:36;-3.80;78.70
16032;DHT22;8120;48.308;8.914;2023-04-06T02:30:05;-3.80;79.40
16032;DHT22;8120;48.308;8.914;2023-04-06T02:32:34;-3.90;79.20
16032;DHT22;8120;48.308;8.914;2023-04-06T02:35:02;-4.00;79.40
16032;DHT22;8120;48.308;8.914;2023-04-06T02:37:30;-4.00;80.30
16032;DHT22;8120;48.308;8.914;2023-04-06T02:39:58;-3.90;80.50
16032;DHT22;8120;48.308;8.914;2023-04-06T02:42:26;-3.90;80.10
16032;DHT22;8120;48.308;8.914;2023-04-06T02:44:53;-3.90;80.50
16032;DHT22;8120;48.308;8.914;2023-04-06T02:47:21;-3.90;81.10
16032;DHT22;8120;48.308;8.914;2023-04-06T02:49:50;-3.90;81.10
16032;DHT22;8120;48.308;8.914;2023-04-06T02:52:18;-3.90;80.30
16032;DHT22;8120;48.308;8.914;2023-04-06T02:54:46;-3.90;80.10
16032;DHT22;8120;48.308;8.914;2023-04-06T02:57:14;-4.10;79.90
16032;DHT22;8120;48.308;8.914;2023-04-06T02:59:42;-4.10;80.40
16032;DHT22;8120;48.308;8.914;2023-04-06T03:02:10;-4.20;80.50
16032;DHT22;8120;48.308;8.914;2023-04-06T03:04:37;-4.20;81.30
16032;DHT22;8120;48.308;8.914;2023-04-06T03:07:07;-4.00;81.80
16032;DHT22;8120;48.308;8.914;2023-04-06T03:09:37;-4.00;81.00
16032;DHT22;8120;48.308;8.914;2023-04-06T03:12:05;-4.00;80.50
16032;DHT22;8120;48.308;8.914;2023-04-06T03:14:35;-4.00;79.80
16032;DHT22;8120;48.308;8.914;2023-04-06T03:17:03;-4.20;80.00
16032;DHT22;8120;48.308;8.914;2023-04-06T03:19:31;-4.20;80.70
16032;DHT22;8120;48.308;8.914;2023-04-06T03:21:59;-4.30;80.20
16032;DHT22;8120;48.308;8.914;2023-04-06T03:24:28;-4.40;80.60
16032;DHT22;8120;48.308;8.914;2023-04-06T03:26:56;-4.40;80.60
16032;DHT22;8120;48.308;8.914;2023-04-06T03:29:24;-4.40;81.10
16032;DHT22;8120;48.308;8.914;2023-04-06T03:31:51;-4.40;81.10
16032;DHT22;8120;48.308;8.914;2023-04-06T03:34:19;-4.40;81.00
16032;DHT22;8120;48.308;8.914;2023-04-06T03:36:47;-4.40;81.00
16032;DHT22;8120;48.308;8.914;2023-04-06T03:39:33;-4.50;80.60
16032;DHT22;8120;48.308;8.914;2023-04-06T03:42:11;-4.50;80.50
16032;DHT22;8120;48.308;8.914;2023-04-06T03:44:38;-4.60;81.10
16032;DHT22;8120;48.308;8.914;2023-04-06T03:47:06;-4.60;81.10
16032;DHT22;8120;48.308;8.914;2023-04-06T03:49:34;-4.70;82.30
16032;DHT22;8120;48.308;8.914;2023-04-06T03:52:04;-4.70;81.80
16032;DHT22;8120;48.308;8.914;2023-04-06T03:54:33;-4.70;81.90
16032;DHT22;8120;48.308;8.914;2023-04-06T03:57:01;-4.70;82.00
16032;DHT22;8120;48.308;8.914;2023-04-06T03:59:29;-4.70;81.50
16032;DHT22;8120;48.308;8.914;2023-04-06T04:01:57;-4.70;82.60
16032;DHT22;8120;48.308;8.914;2023-04-06T04:04:25;-4.70;82.10
16032;DHT22;8120;48.308;8.914;2023-04-06T04:06:53;-4.80;82.20
16032;DHT22;8120;48.308;8.914;2023-04-06T04:09:21;-4.80;82.30
16032;DHT22;8120;48.308;8.914;2023-04-06T04:11:50;-4.80;81.50
16032;DHT22;8120;48.308;8.914;2023-04-06T04:14:18;-4.90;81.80
16032;DHT22;8120;48.308;8.914;2023-04-06T04:16:46;-5.00;81.80
16032;DHT22;8120;48.308;8.914;2023-04-06T04:19:14;-5.00;81.80
16032;DHT22;8120;48.308;8.914;2023-04-06T04:21:43;-5.10;82.20
16032;DHT22;8120;48.308;8.914;2023-04-06T04:24:12;-5.10;82.40
16032;DHT22;8120;48.308;8.914;2023-04-06T04:26:40;-5.10;82.60
16032;DHT22;8120;48.308;8.914;2023-04-06T04:29:09;-5.20;82.50
16032;DHT22;8120;48.308;8.914;2023-04-06T04:31:37;-5.20;82.50
16032;DHT22;8120;48.308;8.914;2023-04-06T04:34:05;-5.30;82.20
16032;DHT22;8120;48.308;8.914;2023-04-06T04:36:34;-5.30;83.70
16032;DHT22;8120;48.308;8.914;2023-04-06T04:39:02;-5.20;83.90
16032;DHT22;8120;48.308;8.914;2023-04-06T04:41:30;-5.10;84.70
16032;DHT22;8120;48.308;8.914;2023-04-06T04:43:58;-5.10;85.00
16032;DHT22;8120;48.308;8.914;2023-04-06T04:46:27;-5.00;84.70
16032;DHT22;8120;48.308;8.914;2023-04-06T04:48:55;-5.00;84.20
16032;DHT22;8120;48.308;8.914;2023-04-06T04:51:23;-4.90;84.30
16032;DHT22;8120;48.308;8.914;2023-04-06T04:53:51;-4.90;84.50
16032;DHT22;8120;48.308;8.914;2023-04-06T04:56:19;-4.80;84.10
16032;DHT22;8120;48.308;8.914;2023-04-06T04:58:47;-4.80;83.40
16032;DHT22;8120;48.308;8.914;2023-04-06T05:01:15;-4.80;83.40
16032;DHT22;8120;48.308;8.914;2023-04-06T05:03:44;-4.80;83.30
16032;DHT22;8120;48.308;8.914;2023-04-06T05:06:12;-4.80;82.50
16032;DHT22;8120;48.308;8.914;2023-04-06T05:08:40;-4.70;82.20
16032;DHT22;8120;48.308;8.914;2023-04-06T05:11:08;-4.80;81.60
16032;DHT22;8120;48.308;8.914;2023-04-06T05:13:36;-4.70;81.70
16032;DHT22;8120;48.308;8.914;2023-04-06T05:16:04;-4.70;81.50
16032;DHT22;8120;48.308;8.914;2023-04-06T05:18:32;-4.70;81.10
16032;DHT22;8120;48.308;8.914;2023-04-06T05:21:02;-4.60;81.00
16032;DHT22;8120;48.308;8.914;2023-04-06T05:23:29;-4.60;80.50
16032;DHT22;8120;48.308;8.914;2023-04-06T05:25:57;-4.40;81.20
16032;DHT22;8120;48.308;8.914;2023-04-06T05:28:25;-3.90;81.00
16032;DHT22;8120;48.308;8.914;2023-04-06T05:30:53;-3.50;78.90
16032;DHT22;8120;48.308;8.914;2023-04-06T05:33:21;-3.00;78.00
16032;DHT22;8120;48.308;8.914;2023-04-06T05:35:49;-2.60;75.10
16032;DHT22;8120;48.308;8.914;2023-04-06T05:38:18;-2.10;74.60
16032;DHT22;8120;48.308;8.914;2023-04-06T05:40:46;-1.70;72.80
16032;DHT22;8120;48.308;8.914;2023-04-06T05:43:14;-1.70;69.30
16032;DHT22;8120;48.308;8.914;2023-04-06T05:45:44;-1.90;72.00
16032;DHT22;8120;48.308;8.914;2023-04-06T05:48:12;-1.80;70.60
16032;DHT22;8120;48.308;8.914;2023-04-06T05:50:40;-1.70;71.00
16032;DHT22;8120;48.308;8.914;2023-04-06T05:53:07;-1.30;69.50
16032;DHT22;8120;48.308;8.914;2023-04-06T05:55:36;-1.00;70.60
16032;DHT22;8120;48.308;8.914;2023-04-06T05:58:04;-0.30;67.00
16032;DHT22;8120;48.308;8.914;2023-04-06T06:00:34;0.00;65.50
16032;DHT22;8120;48.308;8.914;2023-04-06T06:03:02;0.30;63.50
16032;DHT22;8120;48.308;8.914;2023-04-06T06:05:32;0.30;63.20
16032;DHT22;8120;48.308;8.914;2023-04-06T06:08:00;0.70;63.30
16032;DHT22;8120;48.308;8.914;2023-04-06T06:10:28;1.10;60.60
16032;DHT22;8120;48.308;8.914;2023-04-06T06:12:58;1.30;60.90
16032;DHT22;8120;48.308;8.914;2023-04-06T06:15:26;1.50;59.60
16032;DHT22;8120;48.308;8.914;2023-04-06T06:17:53;1.90;58.80
16032;DHT22;8120;48.308;8.914;2023-04-06T06:20:21;2.30;56.10
16032;DHT22;8120;48.308;8.914;2023-04-06T06:22:49;2.40;56.40
16032;DHT22;8120;48.308;8.914;2023-04-06T06:25:17;2.80;56.00
16032;DHT22;8120;48.308;8.914;2023-04-06T06:27:45;3.10;54.60
16032;DHT22;8120;48.308;8.914;2023-04-06T06:30:14;3.20;55.10
16032;DHT22;8120;48.308;8.914;2023-04-06T06:32:42;3.50;54.70
16032;DHT22;8120;48.308;8.914;2023-04-06T06:35:10;3.70;51.90
16032;DHT22;8120;48.308;8.914;2023-04-06T06:37:38;3.50;54.80
16032;DHT22;8120;48.308;8.914;2023-04-06T06:40:08;3.90;52.70
16032;DHT22;8120;48.308;8.914;2023-04-06T06:42:36;3.80;53.10
16032;DHT22;8120;48.308;8.914;2023-04-06T06:45:05;4.20;52.50
16032;DHT22;8120;48.308;8.914;2023-04-06T06:47:34;4.10;52.30
16032;DHT22;8120;48.308;8.914;2023-04-06T06:50:03;4.10;52.20
16032;DHT22;8120;48.308;8.914;2023-04-06T06:52:31;4.20;51.70
16032;DHT22;8120;48.308;8.914;2023-04-06T06:54:58;4.20;52.70
16032;DHT22;8120;48.308;8.914;2023-04-06T06:57:27;3.60;53.50
16032;DHT22;8120;48.308;8.914;2023-04-06T06:59:55;3.70;53.30
16032;DHT22;8120;48.308;8.914;2023-04-06T07:02:23;3.20;55.00
16032;DHT22;8120;48.308;8.914;2023-04-06T07:04:52;2.90;56.70
16032;DHT22;8120;48.308;8.914;2023-04-06T07:07:20;2.90;56.80
16032;DHT22;8120;48.308;8.914;2023-04-06T07:09:48;3.10;55.90
16032;DHT22;8120;48.308;8.914;2023-04-06T07:12:16;3.40;55.50
16032;DHT22;8120;48.308;8.914;2023-04-06T07:14:44;3.50;55.00
16032;DHT22;8120;48.308;8.914;2023-04-06T07:17:11;3.90;54.60
16032;DHT22;8120;48.308;8.914;2023-04-06T07:19:39;4.00;55.40
16032;DHT22;8120;48.308;8.914;2023-04-06T07:22:08;4.60;53.10
16032;DHT22;8120;48.308;8.914;2023-04-06T07:24:36;4.80;52.10
16032;DHT22;8120;48.308;8.914;2023-04-06T07:27:04;4.40;53.40
16032;DHT22;8120;48.308;8.914;2023-04-06T07:29:32;3.90;54.40
16032;DHT22;8120;48.308;8.914;2023-04-06T07:32:00;3.80;55.90
16032;DHT22;8120;48.308;8.914;2023-04-06T07:34:29;4.20;55.00
16032;DHT22;8120;48.308;8.914;2023-04-06T07:36:56;4.40;53.10
16032;DHT22;8120;48.308;8.914;2023-04-06T07:39:28;4.90;52.10
16032;DHT22;8120;48.308;8.914;2023-04-06T07:41:56;5.10;52.10
16032;DHT22;8120;48.308;8.914;2023-04-06T07:44:24;5.40;50.50
16032;DHT22;8120;48.308;8.914;2023-04-06T07:46:51;5.80;50.00
16032;DHT22;8120;48.308;8.914;2023-04-06T07:49:19;6.60;48.90
16032;DHT22;8120;48.308;8.914;2023-04-06T07:51:48;7.20;47.60
16032;DHT22;8120;48.308;8.914;2023-04-06T07:54:15;7.50;46.20
16032;DHT22;8120;48.308;8.914;2023-04-06T07:56:45;7.70;46.70
16032;DHT22;8120;48.308;8.914;2023-04-06T07:59:12;7.90;45.30
16032;DHT22;8120;48.308;8.914;2023-04-06T08:01:40;8.00;45.00
16032;DHT22;8120;48.308;8.914;2023-04-06T08:04:08;7.10;45.50
16032;DHT22;8120;48.308;8.914;2023-04-06T08:06:36;6.70;46.60
16032;DHT22;8120;48.308;8.914;2023-04-06T08:09:04;7.00;46.90
16032;DHT22;8120;48.308;8.914;2023-04-06T08:11:32;7.30;46.20
16032;DHT22;8120;48.308;8.914;2023-04-06T08:14:01;7.20;45.00
16032;DHT22;8120;48.308;8.914;2023-04-06T08:16:29;7.00;44.80
16032;DHT22;8120;48.308;8.914;2023-04-06T08:18:57;6.90;46.10
16032;DHT22;8120;48.308;8.914;2023-04-06T08:21:25;7.80;43.60
16032;DHT22;8120;48.308;8.914;2023-04-06T08:23:52;7.50;44.30
16032;DHT22;8120;48.308;8.914;2023-04-06T08:26:20;7.40;43.70
16032;DHT22;8120;48.308;8.914;2023-04-06T08:28:48;7.70;43.50
16032;DHT22;8120;48.308;8.914;2023-04-06T08:31:17;8.00;43.30
16032;DHT22;8120;48.308;8.914;2023-04-06T08:33:45;8.20;43.10
16032;DHT22;8120;48.308;8.914;2023-04-06T08:36:14;8.30;43.30
16032;DHT22;8120;48.308;8.914;2023-04-06T08:38:43;7.60;43.10
16032;DHT22;8120;48.308;8.914;2023-04-06T08:41:13;7.60;43.30
16032;DHT22;8120;48.308;8.914;2023-04-06T08:43:43;7.60;44.30
16032;DHT22;8120;48.308;8.914;2023-04-06T08:46:11;8.10;42.40
16032;DHT22;8120;48.308;8.914;2023-04-06T08:48:42;8.40;41.20
16032;DHT22;8120;48.308;8.914;2023-04-06T08:51:10;8.60;41.40
16032;DHT22;8120;48.308;8.914;2023-04-06T08:53:38;8.20;40.50
16032;DHT22;8120;48.308;8.914;2023-04-06T08:56:07;8.50;40.60
16032;DHT22;8120;48.308;8.914;2023-04-06T08:58:39;8.70;40.30
16032;DHT22;8120;48.308;8.914;2023-04-06T09:01:09;7.90;39.80
16032;DHT22;8120;48.308;8.914;2023-04-06T09:03:41;8.20;38.70
16032;DHT22;8120;48.308;8.914;2023-04-06T09:06:10;9.00;39.00
16032;DHT22;8120;48.308;8.914;2023-04-06T09:08:40;8.50;39.30
16032;DHT22;8120;48.308;8.914;2023-04-06T09:11:08;8.20;41.10
16032;DHT22;8120;48.308;8.914;2023-04-06T09:13:47;8.10;41.10
16032;DHT22;8120;48.308;8.914;2023-04-06T09:16:16;8.20;40.10
16032;DHT22;8120;48.308;8.914;2023-04-06T09:18:46;7.90;41.40
16032;DHT22;8120;48.308;8.914;2023-04-06T09:21:17;8.20;42.60
16032;DHT22;8120;48.308;8.914;2023-04-06T09:23:47;8.70;40.00
16032;DHT22;8120;48.308;8.914;2023-04-06T09:26:16;8.70;40.60
16032;DHT22;8120;48.308;8.914;2023-04-06T09:28:46;8.40;40.80
16032;DHT22;8120;48.308;8.914;2023-04-06T09:31:15;8.90;39.90
16032;DHT22;8120;48.308;8.914;2023-04-06T09:33:45;9.10;38.10
16032;DHT22;8120;48.308;8.914;2023-04-06T09:36:14;8.70;38.90
16032;DHT22;8120;48.308;8.914;2023-04-06T09:38:52;8.90;38.50
16032;DHT22;8120;48.308;8.914;2023-04-06T09:41:22;8.70;39.40
16032;DHT22;8120;48.308;8.914;2023-04-06T09:43:51;8.70;38.80
16032;DHT22;8120;48.308;8.914;2023-04-06T09:46:21;9.10;38.30
16032;DHT22;8120;48.308;8.914;2023-04-06T09:48:52;9.20;36.80
16032;DHT22;8120;48.308;8.914;2023-04-06T09:51:21;9.50;38.10
16032;DHT22;8120;48.308;8.914;2023-04-06T09:53:52;10.30;37.80
16032;DHT22;8120;48.308;8.914;2023-04-06T09:56:23;10.60;36.10
16032;DHT22;8120;48.308;8.914;2023-04-06T09:58:56;10.00;35.80
16032;DHT22;8120;48.308;8.914;2023-04-06T10:01:28;9.30;34.80
16032;DHT22;8120;48.308;8.914;2023-04-06T10:04:08;9.60;36.40
16032;DHT22;8120;48.308;8.914;2023-04-06T10:06:39;9.70;36.80
16032;DHT22;8120;48.308;8.914;2023-04-06T10:09:07;9.30;36.20
16032;DHT22;8120;48.308;8.914;2023-04-06T10:11:36;9.30;35.90
16032;DHT22;8120;48.308;8.914;2023-04-06T10:14:04;10.10;37.90
16032;DHT22;8120;48.308;8.914;2023-04-06T10:16:32;11.00;35.50
16032;DHT22;8120;48.308;8.914;2023-04-06T10:19:06;10.40;32.10
16032;DHT22;8120;48.308;8.914;2023-04-06T10:21:38;10.30;33.80
16032;DHT22;8120;48.308;8.914;2023-04-06T10:24:09;10.80;31.80
16032;DHT22;8120;48.308;8.914;2023-04-06T10:26:38;9.30;36.40
16032;DHT22;8120;48.308;8.914;2023-04-06T10:29:06;9.30;37.10
16032;DHT22;8120;48.308;8.914;2023-04-06T10:31:40;9.20;34.90
16032;DHT22;8120;48.308;8.914;2023-04-06T10:34:11;9.30;36.30
16032;DHT22;8120;48.308;8.914;2023-04-06T10:36:39;9.30;35.90
16032;DHT22;8120;48.308;8.914;2023-04-06T10:39:07;9.80;34.80
16032;DHT22;8120;48.308;8.914;2023-04-06T10:41:36;10.00;34.90
16032;DHT22;8120;48.308;8.914;2023-04-06T10:44:04;10.20;33.70
16032;DHT22;8120;48.308;8.914;2023-04-06T10:46:33;10.30;34.60
16032;DHT22;8120;48.308;8.914;2023-04-06T10:49:12;10.00;33.90
16032;DHT22;8120;48.308;8.914;2023-04-06T10:51:40;9.80;32.70
16032;DHT22;8120;48.308;8.914;2023-04-06T10:54:08;10.10;33.50
16032;DHT22;8120;48.308;8.914;2023-04-06T10:56:37;9.80;34.90
16032;DHT22;8120;48.308;8.914;2023-04-06T10:59:06;10.00;34.20
16032;DHT22;8120;48.308;8.914;2023-04-06T11:01:34;10.40;35.90
16032;DHT22;8120;48.308;8.914;2023-04-06T11:04:02;9.80;33.80
16032;DHT22;8120;48.308;8.914;2023-04-06T11:06:31;9.80;34.60
16032;DHT22;8120;48.308;8.914;2023-04-06T11:08:59;9.90;33.40
16032;DHT22;8120;48.308;8.914;2023-04-06T11:11:27;9.50;34.50
16032;DHT22;8120;48.308;8.914;2023-04-06T11:13:57;10.30;32.80
16032;DHT22;8120;48.308;8.914;2023-04-06T11:16:26;10.20;33.60
16032;DHT22;8120;48.308;8.914;2023-04-06T11:18:56;10.40;32.70
16032;DHT22;8120;48.308;8.914;2023-04-06T11:21:37;10.90;32.10
16032;DHT22;8120;48.308;8.914;2023-04-06T11:24:10;11.00;30.80
16032;DHT22;8120;48.308;8.914;2023-04-06T11:26:40;11.30;32.60
16032;DHT22;8120;48.308;8.914;2023-04-06T11:29:08;11.40;31.10
16032;DHT22;8120;48.308;8.914;2023-04-06T11:31:46;11.40;32.30
16032;DHT22;8120;48.308;8.914;2023-04-06T11:34:17;11.00;32.10
16032;DHT22;8120;48.308;8.914;2023-04-06T11:36:48;11.20;31.70
16032;DHT22;8120;48.308;8.914;2023-04-06T11:39:19;11.10;31.40
16032;DHT22;8120;48.308;8.914;2023-04-06T11:41:47;10.90;33.40
16032;DHT22;8120;48.308;8.914;2023-04-06T11:44:27;11.10;32.20
16032;DHT22;8120;48.308;8.914;2023-04-06T11:46:57;11.30;32.70
16032;DHT22;8120;48.308;8.914;2023-04-06T11:49:26;11.20;32.20
16032;DHT22;8120;48.308;8.914;2023-04-06T11:51:56;11.30;34.30
16032;DHT22;8120;48.308;8.914;2023-04-06T11:54:31;11.40;34.30
16032;DHT22;8120;48.308;8.914;2023-04-06T11:57:00;11.40;34.40
16032;DHT22;8120;48.308;8.914;2023-04-06T11:59:28;11.20;33.90
16032;DHT22;8120;48.308;8.914;2023-04-06T12:01:57;11.20;35.50
16032;DHT22;8120;48.308;8.914;2023-04-06T12:04:25;11.20;33.00
16032;DHT22;8120;48.308;8.914;2023-04-06T12:06:53;11.00;34.20
16032;DHT22;8120;48.308;8.914;2023-04-06T12:09:22;11.40;34.60
16032;DHT22;8120;48.308;8.914;2023-04-06T12:11:50;11.60;33.20
16032;DHT22;8120;48.308;8.914;2023-04-06T12:14:18;10.60;33.80
16032;DHT22;8120;48.308;8.914;2023-04-06T12:16:46;10.70;33.90
16032;DHT22;8120;48.308;8.914;2023-04-06T12:19:14;11.00;34.30
16032;DHT22;8120;48.308;8.914;2023-04-06T12:21:42;11.30;33.80
16032;DHT22;8120;48.308;8.914;2023-04-06T12:24:10;11.80;34.40
16032;DHT22;8120;48.308;8.914;2023-04-06T12:26:39;11.90;33.60
16032;DHT22;8120;48.308;8.914;2023-04-06T12:29:08;11.20;34.30
16032;DHT22;8120;48.308;8.914;2023-04-06T12:31:36;11.10;34.20
16032;DHT22;8120;48.308;8.914;2023-04-06T12:34:05;11.10;33.40
16032;DHT22;8120;48.308;8.914;2023-04-06T12:36:33;11.40;34.10
16032;DHT22;8120;48.308;8.914;2023-04-06T12:39:01;11.90;33.60
16032;DHT22;8120;48.308;8.914;2023-04-06T12:41:30;11.60;33.60
16032;DHT22;8120;48.308;8.914;2023-04-06T12:43:59;11.70;33.40
16032;DHT22;8120;48.308;8.914;2023-04-06T12:46:27;11.40;33.50
16032;DHT22;8120;48.308;8.914;2023-04-06T12:48:56;11.50;33.00
16032;DHT22;8120;48.308;8.914;2023-04-06T12:51:27;11.90;32.80
16032;DHT22;8120;48.308;8.914;2023-04-06T12:53:55;12.30;32.90
16032;DHT22;8120;48.308;8.914;2023-04-06T12:56:23;12.70;32.40
16032;DHT22;8120;48.308;8.914;2023-04-06T12:58:51;12.50;31.30
16032;DHT22;8120;48.308;8.914;2023-04-06T13:01:21;12.20;30.70
16032;DHT22;8120;48.308;8.914;2023-04-06T13:03:49;11.70;31.30
16032;DHT22;8120;48.308;8.914;2023-04-06T13:06:18;12.00;31.50
16032;DHT22;8120;48.308;8.914;2023-04-06T13:08:45;12.10;32.20
16032;DHT22;8120;48.308;8.914;2023-04-06T13:11:16;12.20;30.90
16032;DHT22;8120;48.308;8.914;2023-04-06T13:13:45;12.10;30.60
16032;DHT22;8120;48.308;8.914;2023-04-06T13:16:13;12.10;31.20
16032;DHT22;8120;48.308;8.914;2023-04-06T13:18:43;12.00;31.50
16032;DHT22;8120;48.308;8.914;2023-04-06T13:21:13;12.20;32.30
16032;DHT22;8120;48.308;8.914;2023-04-06T13:23:42;12.30;34.50
16032;DHT22;8120;48.308;8.914;2023-04-06T13:26:11;12.00;31.90
16032;DHT22;8120;48.308;8.914;2023-04-06T13:28:40;12.20;33.20
16032;DHT22;8120;48.308;8.914;2023-04-06T13:31:08;12.00;31.80
16032;DHT22;8120;48.308;8.914;2023-04-06T13:33:36;12.10;31.30
16032;DHT22;8120;48.308;8.914;2023-04-06T13:36:07;12.40;30.50
16032;DHT22;8120;48.308;8.914;2023-04-06T13:38:35;13.10;30.50
16032;DHT22;8120;48.308;8.914;2023-04-06T13:41:05;13.10;30.50
16032;DHT22;8120;48.308;8.914;2023-04-06T13:43:33;13.20;30.10
16032;DHT22;8120;48.308;8.914;2023-04-06T13:46:01;13.20;30.80
16032;DHT22;8120;48.308;8.914;2023-04-06T13:48:29;13.30;30.30
16032;DHT22;8120;48.308;8.914;2023-04-06T13:50:57;13.40;30.90
16032;DHT22;8120;48.308;8.914;2023-04-06T13:53:26;13.70;31.30
16032;DHT22;8120;48.308;8.914;2023-04-06T13:55:55;13.30;31.30
16032;DHT22;8120;48.308;8.914;2023-04-06T13:58:23;12.70;31.60
16032;DHT22;8120;48.308;8.914;2023-04-06T14:00:51;13.20;30.80
16032;DHT22;8120;48.308;8.914;2023-04-06T14:03:19;13.10;30.60
16032;DHT22;8120;48.308;8.914;2023-04-06T14:05:48;12.80;30.50
16032;DHT22;8120;48.308;8.914;2023-04-06T14:08:15;12.90;30.60
16032;DHT22;8120;48.308;8.914;2023-04-06T14:10:45;13.10;30.70
16032;DHT22;8120;48.308;8.914;2023-04-06T14:13:12;13.30;33.10
16032;DHT22;8120;48.308;8.914;2023-04-06T14:15:40;13.00;30.70
16032;DHT22;8120;48.308;8.914;2023-04-06T14:18:08;12.90;30.10
16032;DHT22;8120;48.308;8.914;2023-04-06T14:20:37;12.80;31.20
16032;DHT22;8120;48.308;8.914;2023-04-06T14:23:04;12.90;29.40
16032;DHT22;8120;48.308;8.914;2023-04-06T14:25:32;12.90;31.90
16032;DHT22;8120;48.308;8.914;2023-04-06T14:28:03;13.00;30.70
16032;DHT22;8120;48.308;8.914;2023-04-06T14:30:30;12.80;32.00
16032;DHT22;8120;48.308;8.914;2023-04-06T14:32:59;12.40;31.40
16032;DHT22;8120;48.308;8.914;2023-04-06T14:35:27;12.40;32.60
16032;DHT22;8120;48.308;8.914;2023-04-06T14:37:55;12.00;32.10
16032;DHT22;8120;48.308;8.914;2023-04-06T14:40:24;12.00;32.40
16032;DHT22;8120;48.308;8.914;2023-04-06T14:42:52;12.20;31.20
16032;DHT22;8120;48.308;8.914;2023-04-06T14:45:23;12.40;32.80
16032;DHT22;8120;48.308;8.914;2023-04-06T14:47:51;12.30;31.30
16032;DHT22;8120;48.308;8.914;2023-04-06T14:50:19;11.90;30.70
16032;DHT22;8120;48.308;8.914;2023-04-06T14:52:47;11.90;30.70
16032;DHT22;8120;48.308;8.914;2023-04-06T14:55:15;11.80;29.70
16032;DHT22;8120;48.308;8.914;2023-04-06T14:57:43;11.90;30.20
16032;DHT22;8120;48.308;8.914;2023-04-06T15:00:12;11.80;30.80
16032;DHT22;8120;48.308;8.914;2023-04-06T15:02:41;11.90;30.50
16032;DHT22;8120;48.308;8.914;2023-04-06T15:05:10;11.70;30.30
16032;DHT22;8120;48.308;8.914;2023-04-06T15:07:38;11.60;30.00
16032;DHT22;8120;48.308;8.914;2023-04-06T15:10:08;11.80;30.30
16032;DHT22;8120;48.308;8.914;2023-04-06T15:12:38;12.00;31.80
16032;DHT22;8120;48.308;8.914;2023-04-06T15:15:06;12.30;31.40
16032;DHT22;8120;48.308;8.914;2023-04-06T15:17:34;12.20;31.40
16032;DHT22;8120;48.308;8.914;2023-04-06T15:20:05;12.10;30.60
16032;DHT22;8120;48.308;8.914;2023-04-06T15:22:33;12.50;30.70
16032;DHT22;8120;48.308;8.914;2023-04-06T15:25:01;11.90;31.10
16032;DHT22;8120;48.308;8.914;2023-04-06T15:27:28;11.70;29.80
16032;DHT22;8120;48.308;8.914;2023-04-06T15:29:56;11.80;31.00
16032;DHT22;8120;48.308;8.914;2023-04-06T15:32:25;11.70;31.20
16032;DHT22;8120;48.308;8.914;2023-04-06T15:34:53;11.50;30.90
16032;DHT22;8120;48.308;8.914;2023-04-06T15:37:22;11.70;30.70
16032;DHT22;8120;48.308;8.914;2023-04-06T15:39:50;11.80;32.60
16032;DHT22;8120;48.308;8.914;2023-04-06T15:42:17;11.80;31.80
16032;DHT22;8120;48.308;8.914;2023-04-06T15:44:46;11.90;32.80
16032;DHT22;8120;48.308;8.914;2023-04-06T15:47:13;11.90;33.40
16032;DHT22;8120;48.308;8.914;2023-04-06T15:49:41;11.50;33.70
16032;DHT22;8120;48.308;8.914;2023-04-06T15:52:09;11.20;34.70
16032;DHT22;8120;48.308;8.914;2023-04-06T15:54:38;11.30;35.50
16032;DHT22;8120;48.308;8.914;2023-04-06T15:57:07;11.30;34.60
16032;DHT22;8120;48.308;8.914;2023-04-06T15:59:34;11.20;34.10